sensor_id;sensor_type;location;lat;lon;timestamp;temperature;humidity
22202;DHT22;11266;51.522;6.302;2023-02-15T00:00:14;3.10;99.90
22202;DHT22;11266;51.522;6.302;2023-02-15T00:01:17;3.10;99.90
22202;DHT22;11266;51.522;6.302;2023-02-15T00:02:03;3.10;99.90
22202;DHT22;11266;51.522;6.302;2023-02-15T00:02:49;3.10;99.90
22202;DHT22;11266;51.522;6.302;2023-02-15T00:03:35;3.10;99.90
22202;DHT22;11266;51.522;6.302;2023-02-15T00:04:24;3.10;99.90
22202;DHT22;11266;51.522;6.302;2023-02-15T00:05:31;3.10;99.90
22202;DHT22;11266;51.522;6.302;2023-02-15T00:06:17;3.00;99.90
22202;DHT22;11266;51.522;6.302;2023-02-15T00:07:02;3.00;99.90
22202;DHT22;11266;51.522;6.302;2023-02-15T00:07:48;3.00;99.90
22202;DHT22;11266;51.522;6.302;2023-02-15T00:08:34;3.00;99.90
22202;DHT22;11266;51.522;6.302;2023-02-15T00:09:19;3.00;99.90
22202;DHT22;11266;51.522;6.302;2023-02-15T00:10:06;3.00;99.90
22202;DHT22;11266;51.522;6.302;2023-02-15T00:10:56;3.00;99.90
22202;DHT22;11266;51.522;6.302;2023-02-15T00:11:50;3.00;99.90
22202;DHT22;11266;51.522;6.302;2023-02-15T00:12:36;3.00;99.90
22202;DHT22;11266;51.522;6.302;2023-02-15T00:13:21;3.00;99.90
22202;DHT22;11266;51.522;6.302;2023-02-15T00:14:15;3.00;99.90
22202;DHT22;11266;51.522;6.302;2023-02-15T00:15:01;3.00;99.90
22202;DHT22;11266;51.522;6.302;2023-02-15T00:15:47;3.00;99.90
22202;DHT22;11266;51.522;6.302;2023-02-15T00:16:32;3.00;99.90
22202;DHT22;11266;51.522;6.302;2023-02-15T00:17:21;3.00;99.90
22202;DHT22;11266;51.522;6.302;2023-02-15T00:18:07;3.00;99.90
22202;DHT22;11266;51.522;6.302;2023-02-15T00:18:55;3.00;99.90
22202;DHT22;11266;51.522;6.302;2023-02-15T00:19:40;3.10;99.90
22202;DHT22;11266;51.522;6.302;2023-02-15T00:20:26;3.10;99.90
22202;DHT22;11266;51.522;6.302;2023-02-15T00:21:12;3.00;99.90
22202;DHT22;11266;51.522;6.302;2023-02-15T00:21:57;3.00;99.90
22202;DHT22;11266;51.522;6.302;2023-02-15T00:22:43;3.00;99.90
22202;DHT22;11266;51.522;6.302;2023-02-15T00:23:29;2.90;99.90
22202;DHT22;11266;51.522;6.302;2023-02-15T00:24:17;3.00;99.90
22202;DHT22;11266;51.522;6.302;2023-02-15T00:25:03;2.90;99.90
22202;DHT22;11266;51.522;6.302;2023-02-15T00:25:49;3.00;99.90
22202;DHT22;11266;51.522;6.302;2023-02-15T00:26:35;3.00;99.90
22202;DHT22;11266;51.522;6.302;2023-02-15T00:27:21;2.90;99.90
22202;DHT22;11266;51.522;6.302;2023-02-15T00:28:07;2.90;99.90
22202;DHT22;11266;51.522;6.302;2023-02-15T00:28:57;2.90;99.90
22202;DHT22;11266;51.522;6.302;2023-02-15T00:29:47;2.90;99.90
22202;DHT22;11266;51.522;6.302;2023-02-15T00:30:35;2.90;99.90
22202;DHT22;11266;51.522;6.302;2023-02-15T00:31:21;2.90;99.90
22202;DHT22;11266;51.522;6.302;2023-02-15T00:32:07;2.90;99.90
22202;DHT22;11266;51.522;6.302;2023-02-15T00:32:54;2.90;99.90
22202;DHT22;11266;51.522;6.302;2023-02-15T00:33:42;2.90;99.90
22202;DHT22;11266;51.522;6.302;2023-02-15T00:34:28;2.90;99.90
22202;DHT22;11266;51.522;6.302;2023-02-15T00:35:14;2.90;99.90
22202;DHT22;11266;51.522;6.302;2023-02-15T00:36:00;2.90;99.90
22202;DHT22;11266;51.522;6.302;2023-02-15T00:36:46;2.90;99.90
22202;DHT22;11266;51.522;6.302;2023-02-15T00:37:34;2.90;99.90
22202;DHT22;11266;51.522;6.302;2023-02-15T00:38:20;2.90;99.90
22202;DHT22;11266;51.522;6.302;2023-02-15T00:39:08;2.90;99.90
22202;DHT22;11266;51.522;6.302;2023-02-15T00:39:54;2.90;99.90
22202;DHT22;11266;51.522;6.302;2023-02-15T00:40:39;2.80;99.90
22202;DHT22;11266;51.522;6.302;2023-02-15T00:41:25;2.80;99.90
22202;DHT22;11266;51.522;6.302;2023-02-15T00:42:10;2.80;99.90
22202;DHT22;11266;51.522;6.302;2023-02-15T00:42:56;2.80;99.90
22202;DHT22;11266;51.522;6.302;2023-02-15T00:43:44;2.80;99.90
22202;DHT22;11266;51.522;6.302;2023-02-15T00:44:29;2.80;99.90
22202;DHT22;11266;51.522;6.302;2023-02-15T00:45:15;2.80;99.90
22202;DHT22;11266;51.522;6.302;2023-02-15T00:46:02;2.70;99.90
22202;DHT22;11266;51.522;6.302;2023-02-15T00:46:48;2.70;99.90
22202;DHT22;11266;51.522;6.302;2023-02-15T00:47:33;2.70;99.90
22202;DHT22;11266;51.522;6.302;2023-02-15T00:48:19;2.70;99.90
22202;DHT22;11266;51.522;6.302;2023-02-15T00:49:05;2.70;99.90
22202;DHT22;11266;51.522;6.302;2023-02-15T00:49:51;2.60;99.90
22202;DHT22;11266;51.522;6.302;2023-02-15T00:50:39;2.60;99.90
22202;DHT22;11266;51.522;6.302;2023-02-15T00:51:27;2.60;99.90
22202;DHT22;11266;51.522;6.302;2023-02-15T00:52:13;2.60;99.90
22202;DHT22;11266;51.522;6.302;2023-02-15T00:52:58;2.60;99.90
22202;DHT22;11266;51.522;6.302;2023-02-15T00:53:44;2.60;99.90
22202;DHT22;11266;51.522;6.302;2023-02-15T00:54:30;2.60;99.90
22202;DHT22;11266;51.522;6.302;2023-02-15T00:55:19;2.60;99.90
22202;DHT22;11266;51.522;6.302;2023-02-15T00:56:05;2.60;99.90
22202;DHT22;11266;51.522;6.302;2023-02-15T00:56:53;2.60;99.90
22202;DHT22;11266;51.522;6.302;2023-02-15T00:57:38;2.60;99.90
22202;DHT22;11266;51.522;6.302;2023-02-15T00:58:24;2.60;99.90
22202;DHT22;11266;51.522;6.302;2023-02-15T00:59:13;2.60;99.90
22202;DHT22;11266;51.522;6.302;2023-02-15T00:59:59;2.60;99.90
22202;DHT22;11266;51.522;6.302;2023-02-15T01:00:48;2.60;99.90
22202;DHT22;11266;51.522;6.302;2023-02-15T01:01:34;2.60;99.90
22202;DHT22;11266;51.522;6.302;2023-02-15T01:02:19;2.60;99.90
22202;DHT22;11266;51.522;6.302;2023-02-15T01:03:08;2.60;99.90
22202;DHT22;11266;51.522;6.302;2023-02-15T01:03:53;2.50;99.90
22202;DHT22;11266;51.522;6.302;2023-02-15T01:04:41;2.50;99.90
22202;DHT22;11266;51.522;6.302;2023-02-15T01:05:30;2.60;99.90
22202;DHT22;11266;51.522;6.302;2023-02-15T01:06:16;2.50;99.90
22202;DHT22;11266;51.522;6.302;2023-02-15T01:07:02;2.50;99.90
22202;DHT22;11266;51.522;6.302;2023-02-15T01:07:48;2.50;99.90
22202;DHT22;11266;51.522;6.302;2023-02-15T01:08:34;2.60;99.90
22202;DHT22;11266;51.522;6.302;2023-02-15T01:09:20;2.60;99.90
22202;DHT22;11266;51.522;6.302;2023-02-15T01:10:06;2.60;99.90
22202;DHT22;11266;51.522;6.302;2023-02-15T01:10:53;2.60;99.90
22202;DHT22;11266;51.522;6.302;2023-02-15T01:11:38;2.60;99.90
22202;DHT22;11266;51.522;6.302;2023-02-15T01:12:24;2.50;99.90
22202;DHT22;11266;51.522;6.302;2023-02-15T01:13:10;2.50;99.90
22202;DHT22;11266;51.522;6.302;2023-02-15T01:13:57;2.50;99.90
22202;DHT22;11266;51.522;6.302;2023-02-15T01:14:45;2.50;99.90
22202;DHT22;11266;51.522;6.302;2023-02-15T01:15:31;2.50;99.90
22202;DHT22;11266;51.522;6.302;2023-02-15T01:16:19;2.50;99.90
22202;DHT22;11266;51.522;6.302;2023-02-15T01:17:05;2.50;99.90
22202;DHT22;11266;51.522;6.302;2023-02-15T01:17:51;2.50;99.90
22202;DHT22;11266;51.522;6.302;2023-02-15T01:18:38;2.40;99.90
22202;DHT22;11266;51.522;6.302;2023-02-15T01:19:23;2.50;99.90
22202;DHT22;11266;51.522;6.302;2023-02-15T01:20:11;2.50;99.90
22202;DHT22;11266;51.522;6.302;2023-02-15T01:20:57;2.40;99.90
22202;DHT22;11266;51.522;6.302;2023-02-15T01:21:42;2.40;99.90
22202;DHT22;11266;51.522;6.302;2023-02-15T01:22:28;2.40;99.90
22202;DHT22;11266;51.522;6.302;2023-02-15T01:23:14;2.40;99.90
22202;DHT22;11266;51.522;6.302;2023-02-15T01:24:01;2.40;99.90
22202;DHT22;11266;51.522;6.302;2023-02-15T01:24:49;2.40;99.90
22202;DHT22;11266;51.522;6.302;2023-02-15T01:25:35;2.40;99.90
22202;DHT22;11266;51.522;6.302;2023-02-15T01:26:21;2.40;99.90
22202;DHT22;11266;51.522;6.302;2023-02-15T01:27:07;2.40;99.90
22202;DHT22;11266;51.522;6.302;2023-02-15T01:27:52;2.40;99.90
22202;DHT22;11266;51.522;6.302;2023-02-15T01:28:38;2.40;99.90
22202;DHT22;11266;51.522;6.302;2023-02-15T01:29:23;2.40;99.90
22202;DHT22;11266;51.522;6.302;2023-02-15T01:30:10;2.30;99.90
22202;DHT22;11266;51.522;6.302;2023-02-15T01:30:56;2.40;99.90
22202;DHT22;11266;51.522;6.302;2023-02-15T01:31:41;2.40;99.90
22202;DHT22;11266;51.522;6.302;2023-02-15T01:32:27;2.30;99.90
22202;DHT22;11266;51.522;6.302;2023-02-15T01:33:12;2.40;99.90
22202;DHT22;11266;51.522;6.302;2023-02-15T01:34:02;2.40;99.90
22202;DHT22;11266;51.522;6.302;2023-02-15T01:34:48;2.30;99.90
22202;DHT22;11266;51.522;6.302;2023-02-15T01:35:34;2.30;99.90
22202;DHT22;11266;51.522;6.302;2023-02-15T01:36:21;2.30;99.90
22202;DHT22;11266;51.522;6.302;2023-02-15T01:37:07;2.30;99.90
22202;DHT22;11266;51.522;6.302;2023-02-15T01:37:55;2.30;99.90
22202;DHT22;11266;51.522;6.302;2023-02-15T01:38:43;2.30;99.90
22202;DHT22;11266;51.522;6.302;2023-02-15T01:39:33;2.30;99.90
22202;DHT22;11266;51.522;6.302;2023-02-15T01:40:19;2.30;99.90
22202;DHT22;11266;51.522;6.302;2023-02-15T01:41:05;2.30;99.90
22202;DHT22;11266;51.522;6.302;2023-02-15T01:42:21;2.30;99.90
22202;DHT22;11266;51.522;6.302;2023-02-15T01:43:12;2.20;99.90
22202;DHT22;11266;51.522;6.302;2023-02-15T01:43:59;2.20;99.90
22202;DHT22;11266;51.522;6.302;2023-02-15T01:45:14;2.20;99.90
22202;DHT22;11266;51.522;6.302;2023-02-15T01:46:07;2.20;99.90
22202;DHT22;11266;51.522;6.302;2023-02-15T01:46:54;2.20;99.90
22202;DHT22;11266;51.522;6.302;2023-02-15T01:47:58;2.20;99.90
22202;DHT22;11266;51.522;6.302;2023-02-15T01:48:48;2.20;99.90
22202;DHT22;11266;51.522;6.302;2023-02-15T01:49:35;2.20;99.90
22202;DHT22;11266;51.522;6.302;2023-02-15T01:50:29;2.20;99.90
22202;DHT22;11266;51.522;6.302;2023-02-15T01:51:18;2.20;99.90
22202;DHT22;11266;51.522;6.302;2023-02-15T01:52:05;2.20;99.90
22202;DHT22;11266;51.522;6.302;2023-02-15T01:52:52;2.20;99.90
22202;DHT22;11266;51.522;6.302;2023-02-15T01:53:47;2.20;99.90
22202;DHT22;11266;51.522;6.302;2023-02-15T01:54:36;2.20;99.90
22202;DHT22;11266;51.522;6.302;2023-02-15T01:55:26;2.20;99.90
22202;DHT22;11266;51.522;6.302;2023-02-15T01:56:17;2.20;99.90
22202;DHT22;11266;51.522;6.302;2023-02-15T01:57:12;2.20;99.90
22202;DHT22;11266;51.522;6.302;2023-02-15T01:57:59;2.10;99.90
22202;DHT22;11266;51.522;6.302;2023-02-15T01:58:45;2.10;99.90
22202;DHT22;11266;51.522;6.302;2023-02-15T01:59:33;2.10;99.90
22202;DHT22;11266;51.522;6.302;2023-02-15T02:00:20;2.20;99.90
22202;DHT22;11266;51.522;6.302;2023-02-15T02:01:08;2.20;99.90
22202;DHT22;11266;51.522;6.302;2023-02-15T02:01:58;2.20;99.90
22202;DHT22;11266;51.522;6.302;2023-02-15T02:02:47;2.10;99.90
22202;DHT22;11266;51.522;6.302;2023-02-15T02:04:38;2.10;99.90
22202;DHT22;11266;51.522;6.302;2023-02-15T02:05:25;2.20;99.90
22202;DHT22;11266;51.522;6.302;2023-02-15T02:06:11;2.20;99.90
22202;DHT22;11266;51.522;6.302;2023-02-15T02:06:58;2.20;99.90
22202;DHT22;11266;51.522;6.302;2023-02-15T02:07:45;2.10;99.90
22202;DHT22;11266;51.522;6.302;2023-02-15T02:08:32;2.10;99.90
22202;DHT22;11266;51.522;6.302;2023-02-15T02:09:18;2.10;99.90
22202;DHT22;11266;51.522;6.302;2023-02-15T02:10:07;2.20;99.90
22202;DHT22;11266;51.522;6.302;2023-02-15T02:10:53;2.20;99.90
22202;DHT22;11266;51.522;6.302;2023-02-15T02:11:40;2.20;99.90
22202;DHT22;11266;51.522;6.302;2023-02-15T02:12:26;2.20;99.90
22202;DHT22;11266;51.522;6.302;2023-02-15T02:13:12;2.20;99.90
22202;DHT22;11266;51.522;6.302;2023-02-15T02:13:57;2.20;99.90
22202;DHT22;11266;51.522;6.302;2023-02-15T02:14:44;2.20;99.90
22202;DHT22;11266;51.522;6.302;2023-02-15T02:15:54;2.20;99.90
22202;DHT22;11266;51.522;6.302;2023-02-15T02:21:12;2.10;99.90
22202;DHT22;11266;51.522;6.302;2023-02-15T02:27:22;2.20;99.90
22202;DHT22;11266;51.522;6.302;2023-02-15T02:29:57;2.20;99.90
22202;DHT22;11266;51.522;6.302;2023-02-15T02:33:06;2.10;99.90
22202;DHT22;11266;51.522;6.302;2023-02-15T02:36:06;2.20;99.90
22202;DHT22;11266;51.522;6.302;2023-02-15T02:38:03;2.20;99.90
22202;DHT22;11266;51.522;6.302;2023-02-15T02:40:39;2.10;99.90
22202;DHT22;11266;51.522;6.302;2023-02-15T02:41:50;2.10;99.90
22202;DHT22;11266;51.522;6.302;2023-02-15T02:43:01;2.10;99.90
22202;DHT22;11266;51.522;6.302;2023-02-15T02:44:59;2.10;99.90
22202;DHT22;11266;51.522;6.302;2023-02-15T02:46:05;2.10;99.90
22202;DHT22;11266;51.522;6.302;2023-02-15T02:48:08;2.00;99.90
22202;DHT22;11266;51.522;6.302;2023-02-15T02:48:55;2.00;99.90
22202;DHT22;11266;51.522;6.302;2023-02-15T02:49:42;2.00;99.90
22202;DHT22;11266;51.522;6.302;2023-02-15T02:50:29;2.00;99.90
22202;DHT22;11266;51.522;6.302;2023-02-15T02:51:15;2.00;99.90
22202;DHT22;11266;51.522;6.302;2023-02-15T02:53:21;2.10;99.90
22202;DHT22;11266;51.522;6.302;2023-02-15T02:54:07;2.00;99.90
22202;DHT22;11266;51.522;6.302;2023-02-15T02:54:55;2.00;99.90
22202;DHT22;11266;51.522;6.302;2023-02-15T02:55:48;2.00;99.90
22202;DHT22;11266;51.522;6.302;2023-02-15T02:56:44;2.00;99.90
22202;DHT22;11266;51.522;6.302;2023-02-15T02:57:32;2.00;99.90
22202;DHT22;11266;51.522;6.302;2023-02-15T02:59:16;1.90;99.90
22202;DHT22;11266;51.522;6.302;2023-02-15T03:00:06;1.90;99.90
22202;DHT22;11266;51.522;6.302;2023-02-15T03:01:00;1.90;99.90
22202;DHT22;11266;51.522;6.302;2023-02-15T03:01:55;1.90;99.90
22202;DHT22;11266;51.522;6.302;2023-02-15T03:02:45;1.90;99.90
22202;DHT22;11266;51.522;6.302;2023-02-15T03:03:39;1.90;99.90
22202;DHT22;11266;51.522;6.302;2023-02-15T03:04:32;1.90;99.90
22202;DHT22;11266;51.522;6.302;2023-02-15T03:05:26;1.90;99.90
22202;DHT22;11266;51.522;6.302;2023-02-15T03:06:16;1.90;99.90
22202;DHT22;11266;51.522;6.302;2023-02-15T03:07:07;1.90;99.90
22202;DHT22;11266;51.522;6.302;2023-02-15T03:07:55;1.90;99.90
22202;DHT22;11266;51.522;6.302;2023-02-15T03:08:45;1.90;99.90
22202;DHT22;11266;51.522;6.302;2023-02-15T03:09:37;1.90;99.90
22202;DHT22;11266;51.522;6.302;2023-02-15T03:10:29;1.90;99.90
22202;DHT22;11266;51.522;6.302;2023-02-15T03:11:15;1.90;99.90
22202;DHT22;11266;51.522;6.302;2023-02-15T03:12:02;1.90;99.90
22202;DHT22;11266;51.522;6.302;2023-02-15T03:12:52;1.90;99.90
22202;DHT22;11266;51.522;6.302;2023-02-15T03:13:37;1.90;99.90
22202;DHT22;11266;51.522;6.302;2023-02-15T03:14:24;1.90;99.90
22202;DHT22;11266;51.522;6.302;2023-02-15T03:15:14;1.80;99.90
22202;DHT22;11266;51.522;6.302;2023-02-15T03:16:01;1.80;99.90
22202;DHT22;11266;51.522;6.302;2023-02-15T03:17:11;1.80;99.90
22202;DHT22;11266;51.522;6.302;2023-02-15T03:18:00;1.80;99.90
22202;DHT22;11266;51.522;6.302;2023-02-15T03:19:57;1.80;99.90
22202;DHT22;11266;51.522;6.302;2023-02-15T03:20:44;1.90;99.90
22202;DHT22;11266;51.522;6.302;2023-02-15T03:21:51;1.90;99.90
22202;DHT22;11266;51.522;6.302;2023-02-15T03:22:48;1.90;99.90
22202;DHT22;11266;51.522;6.302;2023-02-15T03:23:36;1.80;99.90
22202;DHT22;11266;51.522;6.302;2023-02-15T03:24:28;1.80;99.90
22202;DHT22;11266;51.522;6.302;2023-02-15T03:25:19;1.80;99.90
22202;DHT22;11266;51.522;6.302;2023-02-15T03:26:07;1.80;99.90
22202;DHT22;11266;51.522;6.302;2023-02-15T03:26:54;1.80;99.90
22202;DHT22;11266;51.522;6.302;2023-02-15T03:27:44;1.80;99.90
22202;DHT22;11266;51.522;6.302;2023-02-15T03:28:36;1.80;99.90
22202;DHT22;11266;51.522;6.302;2023-02-15T03:29:26;1.80;99.90
22202;DHT22;11266;51.522;6.302;2023-02-15T03:30:13;1.80;99.90
22202;DHT22;11266;51.522;6.302;2023-02-15T03:31:05;1.80;99.90
22202;DHT22;11266;51.522;6.302;2023-02-15T03:31:56;1.80;99.90
22202;DHT22;11266;51.522;6.302;2023-02-15T03:32:45;1.80;99.90
22202;DHT22;11266;51.522;6.302;2023-02-15T03:33:35;1.80;99.90
22202;DHT22;11266;51.522;6.302;2023-02-15T03:34:21;1.80;99.90
22202;DHT22;11266;51.522;6.302;2023-02-15T03:35:07;1.80;99.90
22202;DHT22;11266;51.522;6.302;2023-02-15T03:36:11;1.70;99.90
22202;DHT22;11266;51.522;6.302;2023-02-15T03:38:09;1.70;99.90
22202;DHT22;11266;51.522;6.302;2023-02-15T03:40:29;1.60;99.90
22202;DHT22;11266;51.522;6.302;2023-02-15T03:41:39;1.60;99.90
22202;DHT22;11266;51.522;6.302;2023-02-15T03:42:32;1.60;99.90
22202;DHT22;11266;51.522;6.302;2023-02-15T03:44:46;1.70;99.90
22202;DHT22;11266;51.522;6.302;2023-02-15T03:45:34;1.70;99.90
22202;DHT22;11266;51.522;6.302;2023-02-15T03:46:32;1.70;99.90
22202;DHT22;11266;51.522;6.302;2023-02-15T03:47:20;1.60;99.90
22202;DHT22;11266;51.522;6.302;2023-02-15T03:48:09;1.70;99.90
22202;DHT22;11266;51.522;6.302;2023-02-15T03:50:08;1.60;99.90
22202;DHT22;11266;51.522;6.302;2023-02-15T03:51:19;1.70;99.90
22202;DHT22;11266;51.522;6.302;2023-02-15T03:52:20;1.60;99.90
22202;DHT22;11266;51.522;6.302;2023-02-15T03:53:10;1.60;99.90
22202;DHT22;11266;51.522;6.302;2023-02-15T03:53:57;1.60;99.90
22202;DHT22;11266;51.522;6.302;2023-02-15T03:54:44;1.60;99.90
22202;DHT22;11266;51.522;6.302;2023-02-15T03:55:33;1.60;99.90
22202;DHT22;11266;51.522;6.302;2023-02-15T03:56:22;1.60;99.90
22202;DHT22;11266;51.522;6.302;2023-02-15T03:58:16;1.60;99.90
22202;DHT22;11266;51.522;6.302;2023-02-15T03:59:20;1.60;99.90
22202;DHT22;11266;51.522;6.302;2023-02-15T04:00:24;1.60;99.90
22202;DHT22;11266;51.522;6.302;2023-02-15T04:03:37;1.60;99.90
22202;DHT22;11266;51.522;6.302;2023-02-15T04:04:20;1.60;99.90
22202;DHT22;11266;51.522;6.302;2023-02-15T04:05:06;1.60;99.90
22202;DHT22;11266;51.522;6.302;2023-02-15T04:05:52;1.60;99.90
22202;DHT22;11266;51.522;6.302;2023-02-15T04:06:37;1.60;99.90
22202;DHT22;11266;51.522;6.302;2023-02-15T04:07:23;1.60;99.90
22202;DHT22;11266;51.522;6.302;2023-02-15T04:08:09;1.60;99.90
22202;DHT22;11266;51.522;6.302;2023-02-15T04:08:55;1.60;99.90
22202;DHT22;11266;51.522;6.302;2023-02-15T04:09:59;1.60;99.90
22202;DHT22;11266;51.522;6.302;2023-02-15T04:11:03;1.60;99.90
22202;DHT22;11266;51.522;6.302;2023-02-15T04:11:49;1.60;99.90
22202;DHT22;11266;51.522;6.302;2023-02-15T04:12:35;1.60;99.90
22202;DHT22;11266;51.522;6.302;2023-02-15T04:13:24;1.60;99.90
22202;DHT22;11266;51.522;6.302;2023-02-15T04:14:14;1.60;99.90
22202;DHT22;11266;51.522;6.302;2023-02-15T04:15:18;1.60;99.90
22202;DHT22;11266;51.522;6.302;2023-02-15T04:16:24;1.60;99.90
22202;DHT22;11266;51.522;6.302;2023-02-15T04:17:09;1.60;99.90
22202;DHT22;11266;51.522;6.302;2023-02-15T04:17:55;1.60;99.90
22202;DHT22;11266;51.522;6.302;2023-02-15T04:18:42;1.60;99.90
22202;DHT22;11266;51.522;6.302;2023-02-15T04:19:47;1.60;99.90
22202;DHT22;11266;51.522;6.302;2023-02-15T04:20:51;1.60;99.90
22202;DHT22;11266;51.522;6.302;2023-02-15T04:21:56;1.50;99.90
22202;DHT22;11266;51.522;6.302;2023-02-15T04:23:00;1.50;99.90
22202;DHT22;11266;51.522;6.302;2023-02-15T04:24:07;1.50;99.90
22202;DHT22;11266;51.522;6.302;2023-02-15T04:25:14;1.50;99.90
22202;DHT22;11266;51.522;6.302;2023-02-15T04:26:03;1.50;99.90
22202;DHT22;11266;51.522;6.302;2023-02-15T04:26:49;1.50;99.90
22202;DHT22;11266;51.522;6.302;2023-02-15T04:27:40;1.50;99.90
22202;DHT22;11266;51.522;6.302;2023-02-15T04:28:26;1.50;99.90
22202;DHT22;11266;51.522;6.302;2023-02-15T04:29:11;1.50;99.90
22202;DHT22;11266;51.522;6.302;2023-02-15T04:29:57;1.50;99.90
22202;DHT22;11266;51.522;6.302;2023-02-15T04:30:43;1.50;99.90
22202;DHT22;11266;51.522;6.302;2023-02-15T04:31:28;1.50;99.90
22202;DHT22;11266;51.522;6.302;2023-02-15T04:32:16;1.50;99.90
22202;DHT22;11266;51.522;6.302;2023-02-15T04:33:02;1.50;99.90
22202;DHT22;11266;51.522;6.302;2023-02-15T04:33:47;1.50;99.90
22202;DHT22;11266;51.522;6.302;2023-02-15T04:34:33;1.50;99.90
22202;DHT22;11266;51.522;6.302;2023-02-15T04:35:19;1.50;99.90
22202;DHT22;11266;51.522;6.302;2023-02-15T04:36:05;1.50;99.90
22202;DHT22;11266;51.522;6.302;2023-02-15T04:36:50;1.50;99.90
22202;DHT22;11266;51.522;6.302;2023-02-15T04:37:36;1.50;99.90
22202;DHT22;11266;51.522;6.302;2023-02-15T04:38:22;1.50;99.90
22202;DHT22;11266;51.522;6.302;2023-02-15T04:39:13;1.50;99.90
22202;DHT22;11266;51.522;6.302;2023-02-15T04:39:59;1.50;99.90
22202;DHT22;11266;51.522;6.302;2023-02-15T04:40:44;1.50;99.90
22202;DHT22;11266;51.522;6.302;2023-02-15T04:41:36;1.60;99.90
22202;DHT22;11266;51.522;6.302;2023-02-15T04:43:12;1.50;99.90
22202;DHT22;11266;51.522;6.302;2023-02-15T04:43:58;1.60;99.90
22202;DHT22;11266;51.522;6.302;2023-02-15T04:44:46;1.50;99.90
22202;DHT22;11266;51.522;6.302;2023-02-15T04:45:36;1.50;99.90
22202;DHT22;11266;51.522;6.302;2023-02-15T04:46:22;1.50;99.90
22202;DHT22;11266;51.522;6.302;2023-02-15T04:47:08;1.50;99.90
22202;DHT22;11266;51.522;6.302;2023-02-15T04:47:53;1.50;99.90
22202;DHT22;11266;51.522;6.302;2023-02-15T04:48:40;1.50;99.90
22202;DHT22;11266;51.522;6.302;2023-02-15T04:49:25;1.50;99.90
22202;DHT22;11266;51.522;6.302;2023-02-15T04:50:11;1.50;99.90
22202;DHT22;11266;51.522;6.302;2023-02-15T04:50:57;1.50;99.90
22202;DHT22;11266;51.522;6.302;2023-02-15T04:51:45;1.50;99.90
22202;DHT22;11266;51.522;6.302;2023-02-15T04:52:32;1.50;99.90
22202;DHT22;11266;51.522;6.302;2023-02-15T04:53:18;1.50;99.90
22202;DHT22;11266;51.522;6.302;2023-02-15T04:54:06;1.50;99.90
22202;DHT22;11266;51.522;6.302;2023-02-15T04:54:51;1.50;99.90
22202;DHT22;11266;51.522;6.302;2023-02-15T04:55:37;1.50;99.90
22202;DHT22;11266;51.522;6.302;2023-02-15T04:56:26;1.40;99.90
22202;DHT22;11266;51.522;6.302;2023-02-15T04:57:12;1.40;99.90
22202;DHT22;11266;51.522;6.302;2023-02-15T04:58:00;1.40;99.90
22202;DHT22;11266;51.522;6.302;2023-02-15T04:58:48;1.50;99.90
22202;DHT22;11266;51.522;6.302;2023-02-15T04:59:34;1.50;99.90
22202;DHT22;11266;51.522;6.302;2023-02-15T05:00:20;1.50;99.90
22202;DHT22;11266;51.522;6.302;2023-02-15T05:01:06;1.50;99.90
22202;DHT22;11266;51.522;6.302;2023-02-15T05:01:52;1.50;99.90
22202;DHT22;11266;51.522;6.302;2023-02-15T05:02:37;1.50;99.90
22202;DHT22;11266;51.522;6.302;2023-02-15T05:03:23;1.50;99.90
22202;DHT22;11266;51.522;6.302;2023-02-15T05:04:09;1.50;99.90
22202;DHT22;11266;51.522;6.302;2023-02-15T05:04:55;1.50;99.90
22202;DHT22;11266;51.522;6.302;2023-02-15T05:05:40;1.50;99.90
22202;DHT22;11266;51.522;6.302;2023-02-15T05:06:26;1.50;99.90
22202;DHT22;11266;51.522;6.302;2023-02-15T05:07:12;1.50;99.90
22202;DHT22;11266;51.522;6.302;2023-02-15T05:07:58;1.50;99.90
22202;DHT22;11266;51.522;6.302;2023-02-15T05:08:43;1.50;99.90
22202;DHT22;11266;51.522;6.302;2023-02-15T05:09:29;1.50;99.90
22202;DHT22;11266;51.522;6.302;2023-02-15T05:10:15;1.40;99.90
22202;DHT22;11266;51.522;6.302;2023-02-15T05:11:00;1.40;99.90
22202;DHT22;11266;51.522;6.302;2023-02-15T05:11:46;1.40;99.90
22202;DHT22;11266;51.522;6.302;2023-02-15T05:12:31;1.50;99.90
22202;DHT22;11266;51.522;6.302;2023-02-15T05:13:17;1.40;99.90
22202;DHT22;11266;51.522;6.302;2023-02-15T05:14:03;1.40;99.90
22202;DHT22;11266;51.522;6.302;2023-02-15T05:14:49;1.40;99.90
22202;DHT22;11266;51.522;6.302;2023-02-15T05:15:34;1.40;99.90
22202;DHT22;11266;51.522;6.302;2023-02-15T05:16:20;1.40;99.90
22202;DHT22;11266;51.522;6.302;2023-02-15T05:17:06;1.40;99.90
22202;DHT22;11266;51.522;6.302;2023-02-15T05:17:51;1.40;99.90
22202;DHT22;11266;51.522;6.302;2023-02-15T05:18:37;1.40;99.90
22202;DHT22;11266;51.522;6.302;2023-02-15T05:19:22;1.40;99.90
22202;DHT22;11266;51.522;6.302;2023-02-15T05:20:10;1.40;99.90
22202;DHT22;11266;51.522;6.302;2023-02-15T05:20:58;1.40;99.90
22202;DHT22;11266;51.522;6.302;2023-02-15T05:21:43;1.40;99.90
22202;DHT22;11266;51.522;6.302;2023-02-15T05:22:29;1.40;99.90
22202;DHT22;11266;51.522;6.302;2023-02-15T05:23:15;1.30;99.90
22202;DHT22;11266;51.522;6.302;2023-02-15T05:24:03;1.40;99.90
22202;DHT22;11266;51.522;6.302;2023-02-15T05:25:09;1.40;99.90
22202;DHT22;11266;51.522;6.302;2023-02-15T05:26:18;1.30;99.90
22202;DHT22;11266;51.522;6.302;2023-02-15T05:27:22;1.30;99.90
22202;DHT22;11266;51.522;6.302;2023-02-15T05:28:27;1.30;99.90
22202;DHT22;11266;51.522;6.302;2023-02-15T05:29:13;1.30;99.90
22202;DHT22;11266;51.522;6.302;2023-02-15T05:29:58;1.40;99.90
22202;DHT22;11266;51.522;6.302;2023-02-15T05:30:44;1.30;99.90
22202;DHT22;11266;51.522;6.302;2023-02-15T05:31:31;1.30;99.90
22202;DHT22;11266;51.522;6.302;2023-02-15T05:32:16;1.40;99.90
22202;DHT22;11266;51.522;6.302;2023-02-15T05:33:02;1.30;99.90
22202;DHT22;11266;51.522;6.302;2023-02-15T05:33:50;1.30;99.90
22202;DHT22;11266;51.522;6.302;2023-02-15T05:34:35;1.30;99.90
22202;DHT22;11266;51.522;6.302;2023-02-15T05:35:21;1.30;99.90
22202;DHT22;11266;51.522;6.302;2023-02-15T05:36:07;1.30;99.90
22202;DHT22;11266;51.522;6.302;2023-02-15T05:36:55;1.30;99.90
22202;DHT22;11266;51.522;6.302;2023-02-15T05:37:41;1.30;99.90
22202;DHT22;11266;51.522;6.302;2023-02-15T05:38:27;1.30;99.90
22202;DHT22;11266;51.522;6.302;2023-02-15T05:39:12;1.30;99.90
22202;DHT22;11266;51.522;6.302;2023-02-15T05:40:00;1.30;99.90
22202;DHT22;11266;51.522;6.302;2023-02-15T05:40:46;1.30;99.90
22202;DHT22;11266;51.522;6.302;2023-02-15T05:41:32;1.30;99.90
22202;DHT22;11266;51.522;6.302;2023-02-15T05:42:17;1.30;99.90
22202;DHT22;11266;51.522;6.302;2023-02-15T05:43:03;1.30;99.90
22202;DHT22;11266;51.522;6.302;2023-02-15T05:43:48;1.20;99.90
22202;DHT22;11266;51.522;6.302;2023-02-15T05:44:34;1.20;99.90
22202;DHT22;11266;51.522;6.302;2023-02-15T05:45:20;1.30;99.90
22202;DHT22;11266;51.522;6.302;2023-02-15T05:46:06;1.20;99.90
22202;DHT22;11266;51.522;6.302;2023-02-15T05:46:51;1.30;99.90
22202;DHT22;11266;51.522;6.302;2023-02-15T05:47:37;1.30;99.90
22202;DHT22;11266;51.522;6.302;2023-02-15T05:48:25;1.20;99.90